sensor_id;sensor_type;location;lat;lon;timestamp;temperature;humidity
13052;DHT22;6592;47.484;9.726;2023-11-19T00:01:34;5.90;99.90
13052;DHT22;6592;47.484;9.726;2023-11-19T00:04:04;5.90;99.90
13052;DHT22;6592;47.484;9.726;2023-11-19T00:06:32;6.00;99.90
13052;DHT22;6592;47.484;9.726;2023-11-19T00:09:01;6.00;99.90
13052;DHT22;6592;47.484;9.726;2023-11-19T00:11:30;6.00;99.90
13052;DHT22;6592;47.484;9.726;2023-11-19T00:14:00;6.10;99.90
13052;DHT22;6592;47.484;9.726;2023-11-19T00:16:28;6.10;99.90
13052;DHT22;6592;47.484;9.726;2023-11-19T00:18:58;6.10;99.90
13052;DHT22;6592;47.484;9.726;2023-11-19T00:21:27;6.20;99.90
13052;DHT22;6592;47.484;9.726;2023-11-19T00:23:56;6.10;99.90
13052;DHT22;6592;47.484;9.726;2023-11-19T00:26:25;6.10;99.90
13052;DHT22;6592;47.484;9.726;2023-11-19T00:28:53;6.10;99.90
13052;DHT22;6592;47.484;9.726;2023-11-19T00:31:24;6.10;99.90
13052;DHT22;6592;47.484;9.726;2023-11-19T00:33:53;6.10;99.90
13052;DHT22;6592;47.484;9.726;2023-11-19T00:36:21;6.10;99.90
13052;DHT22;6592;47.484;9.726;2023-11-19T00:38:50;6.10;99.90
13052;DHT22;6592;47.484;9.726;2023-11-19T00:41:19;6.20;99.90
13052;DHT22;6592;47.484;9.726;2023-11-19T00:43:48;6.20;99.90
13052;DHT22;6592;47.484;9.726;2023-11-19T00:46:16;6.20;99.90
13052;DHT22;6592;47.484;9.726;2023-11-19T00:48:46;6.20;99.90
13052;DHT22;6592;47.484;9.726;2023-11-19T00:51:14;6.20;99.90
13052;DHT22;6592;47.484;9.726;2023-11-19T00:53:42;6.20;99.90
13052;DHT22;6592;47.484;9.726;2023-11-19T00:56:11;6.20;99.90
13052;DHT22;6592;47.484;9.726;2023-11-19T00:58:40;6.20;99.90
13052;DHT22;6592;47.484;9.726;2023-11-19T01:01:09;6.20;99.90
13052;DHT22;6592;47.484;9.726;2023-11-19T01:03:37;6.30;99.90
13052;DHT22;6592;47.484;9.726;2023-11-19T01:06:08;6.30;99.90
13052;DHT22;6592;47.484;9.726;2023-11-19T01:08:36;6.30;99.90
13052;DHT22;6592;47.484;9.726;2023-11-19T01:11:04;6.20;99.90
13052;DHT22;6592;47.484;9.726;2023-11-19T01:13:32;6.30;99.90
13052;DHT22;6592;47.484;9.726;2023-11-19T01:16:01;6.30;99.90
13052;DHT22;6592;47.484;9.726;2023-11-19T01:18:29;6.30;99.90
13052;DHT22;6592;47.484;9.726;2023-11-19T01:20:58;6.30;99.90
13052;DHT22;6592;47.484;9.726;2023-11-19T01:23:27;6.40;99.90
13052;DHT22;6592;47.484;9.726;2023-11-19T01:25:56;6.40;99.90
13052;DHT22;6592;47.484;9.726;2023-11-19T01:28:24;6.40;99.90
13052;DHT22;6592;47.484;9.726;2023-11-19T01:30:53;6.50;99.90
13052;DHT22;6592;47.484;9.726;2023-11-19T01:33:21;6.50;99.90
13052;DHT22;6592;47.484;9.726;2023-11-19T01:35:49;6.60;99.90
13052;DHT22;6592;47.484;9.726;2023-11-19T01:38:18;6.60;99.90
13052;DHT22;6592;47.484;9.726;2023-11-19T01:40:48;6.70;99.90
13052;DHT22;6592;47.484;9.726;2023-11-19T01:43:31;6.70;99.90
13052;DHT22;6592;47.484;9.726;2023-11-19T01:46:00;6.60;99.90
13052;DHT22;6592;47.484;9.726;2023-11-19T01:48:28;6.60;99.90
13052;DHT22;6592;47.484;9.726;2023-11-19T01:50:57;6.60;99.90
13052;DHT22;6592;47.484;9.726;2023-11-19T01:53:29;6.50;99.90
13052;DHT22;6592;47.484;9.726;2023-11-19T01:56:00;6.60;99.90
13052;DHT22;6592;47.484;9.726;2023-11-19T01:58:29;6.60;99.90
13052;DHT22;6592;47.484;9.726;2023-11-19T02:00:58;6.60;99.90
13052;DHT22;6592;47.484;9.726;2023-11-19T02:03:26;6.50;99.90
13052;DHT22;6592;47.484;9.726;2023-11-19T02:05:56;6.50;99.90
13052;DHT22;6592;47.484;9.726;2023-11-19T02:08:24;6.50;99.90
13052;DHT22;6592;47.484;9.726;2023-11-19T02:10:53;6.60;99.90
13052;DHT22;6592;47.484;9.726;2023-11-19T02:13:25;6.60;99.90
13052;DHT22;6592;47.484;9.726;2023-11-19T02:15:54;6.70;99.90
13052;DHT22;6592;47.484;9.726;2023-11-19T02:18:24;6.70;99.90
13052;DHT22;6592;47.484;9.726;2023-11-19T02:20:55;6.80;99.90
13052;DHT22;6592;47.484;9.726;2023-11-19T02:23:25;6.80;99.90
13052;DHT22;6592;47.484;9.726;2023-11-19T02:26:02;6.90;99.90
13052;DHT22;6592;47.484;9.726;2023-11-19T02:28:34;6.90;99.90
13052;DHT22;6592;47.484;9.726;2023-11-19T02:31:04;6.90;99.90
13052;DHT22;6592;47.484;9.726;2023-11-19T02:33:36;6.90;99.90
13052;DHT22;6592;47.484;9.726;2023-11-19T02:36:06;7.00;99.90
13052;DHT22;6592;47.484;9.726;2023-11-19T02:38:35;7.00;99.90
13052;DHT22;6592;47.484;9.726;2023-11-19T02:41:04;7.00;99.90
13052;DHT22;6592;47.484;9.726;2023-11-19T02:43:35;7.10;99.90
13052;DHT22;6592;47.484;9.726;2023-11-19T02:46:04;7.10;99.90
13052;DHT22;6592;47.484;9.726;2023-11-19T02:48:37;7.20;99.90
13052;DHT22;6592;47.484;9.726;2023-11-19T02:51:06;7.30;99.90
13052;DHT22;6592;47.484;9.726;2023-11-19T02:53:37;7.30;99.90
13052;DHT22;6592;47.484;9.726;2023-11-19T02:56:07;7.30;99.90
13052;DHT22;6592;47.484;9.726;2023-11-19T02:58:48;7.30;99.90
13052;DHT22;6592;47.484;9.726;2023-11-19T03:01:21;7.30;99.90
13052;DHT22;6592;47.484;9.726;2023-11-19T03:03:57;7.40;99.90
13052;DHT22;6592;47.484;9.726;2023-11-19T03:06:27;7.40;99.90
13052;DHT22;6592;47.484;9.726;2023-11-19T03:08:56;7.40;99.90
13052;DHT22;6592;47.484;9.726;2023-11-19T03:11:24;7.40;99.90
13052;DHT22;6592;47.484;9.726;2023-11-19T03:13:54;7.40;99.90
13052;DHT22;6592;47.484;9.726;2023-11-19T03:16:22;7.40;99.90
13052;DHT22;6592;47.484;9.726;2023-11-19T03:18:50;7.40;99.90
13052;DHT22;6592;47.484;9.726;2023-11-19T03:21:19;7.40;99.90
13052;DHT22;6592;47.484;9.726;2023-11-19T03:23:47;7.50;99.90
13052;DHT22;6592;47.484;9.726;2023-11-19T03:26:16;7.40;99.90
13052;DHT22;6592;47.484;9.726;2023-11-19T03:28:44;7.40;99.90
13052;DHT22;6592;47.484;9.726;2023-11-19T03:31:15;7.50;99.90
13052;DHT22;6592;47.484;9.726;2023-11-19T03:33:44;7.50;99.90
13052;DHT22;6592;47.484;9.726;2023-11-19T03:36:12;7.50;99.90
13052;DHT22;6592;47.484;9.726;2023-11-19T03:38:40;7.40;99.90
13052;DHT22;6592;47.484;9.726;2023-11-19T03:41:13;7.40;99.90
13052;DHT22;6592;47.484;9.726;2023-11-19T03:43:41;7.40;99.90
13052;DHT22;6592;47.484;9.726;2023-11-19T03:46:20;7.30;99.90
13052;DHT22;6592;47.484;9.726;2023-11-19T03:48:49;7.30;99.90
13052;DHT22;6592;47.484;9.726;2023-11-19T03:51:18;7.30;99.90
13052;DHT22;6592;47.484;9.726;2023-11-19T03:53:46;7.30;99.90
13052;DHT22;6592;47.484;9.726;2023-11-19T03:56:14;7.30;99.90
13052;DHT22;6592;47.484;9.726;2023-11-19T03:58:43;7.40;99.90
13052;DHT22;6592;47.484;9.726;2023-11-19T04:01:12;7.40;99.90
13052;DHT22;6592;47.484;9.726;2023-11-19T04:03:42;7.40;99.90
13052;DHT22;6592;47.484;9.726;2023-11-19T04:06:14;7.40;99.90
13052;DHT22;6592;47.484;9.726;2023-11-19T04:08:42;7.40;99.90
13052;DHT22;6592;47.484;9.726;2023-11-19T04:11:11;7.30;99.90
13052;DHT22;6592;47.484;9.726;2023-11-19T04:13:39;7.40;99.90
13052;DHT22;6592;47.484;9.726;2023-11-19T04:16:08;7.40;99.90
13052;DHT22;6592;47.484;9.726;2023-11-19T04:18:37;7.40;99.90
13052;DHT22;6592;47.484;9.726;2023-11-19T04:21:07;7.50;99.90
13052;DHT22;6592;47.484;9.726;2023-11-19T04:23:36;7.50;99.90
13052;DHT22;6592;47.484;9.726;2023-11-19T04:26:04;7.50;99.90
13052;DHT22;6592;47.484;9.726;2023-11-19T04:28:36;7.50;99.90
13052;DHT22;6592;47.484;9.726;2023-11-19T04:31:04;7.50;99.90
13052;DHT22;6592;47.484;9.726;2023-11-19T04:33:33;7.50;99.90
13052;DHT22;6592;47.484;9.726;2023-11-19T04:36:01;7.60;99.90
13052;DHT22;6592;47.484;9.726;2023-11-19T04:38:32;7.60;99.90
13052;DHT22;6592;47.484;9.726;2023-11-19T04:41:00;7.70;99.90
13052;DHT22;6592;47.484;9.726;2023-11-19T04:43:29;7.70;99.90
13052;DHT22;6592;47.484;9.726;2023-11-19T04:45:58;7.70;99.90
13052;DHT22;6592;47.484;9.726;2023-11-19T04:48:26;7.70;99.90
13052;DHT22;6592;47.484;9.726;2023-11-19T04:51:08;7.60;99.90
13052;DHT22;6592;47.484;9.726;2023-11-19T04:53:38;7.60;99.90
13052;DHT22;6592;47.484;9.726;2023-11-19T04:56:11;7.60;99.90
13052;DHT22;6592;47.484;9.726;2023-11-19T04:58:40;7.50;99.90
13052;DHT22;6592;47.484;9.726;2023-11-19T05:01:13;7.50;99.90
13052;DHT22;6592;47.484;9.726;2023-11-19T05:03:44;7.50;99.90
13052;DHT22;6592;47.484;9.726;2023-11-19T05:06:12;7.50;99.90
13052;DHT22;6592;47.484;9.726;2023-11-19T05:08:44;7.50;99.90
13052;DHT22;6592;47.484;9.726;2023-11-19T05:11:12;7.40;99.90
13052;DHT22;6592;47.484;9.726;2023-11-19T05:13:44;7.40;99.90
13052;DHT22;6592;47.484;9.726;2023-11-19T05:16:13;7.40;99.90
13052;DHT22;6592;47.484;9.726;2023-11-19T05:18:42;7.40;99.90
13052;DHT22;6592;47.484;9.726;2023-11-19T05:21:10;7.30;99.90
13052;DHT22;6592;47.484;9.726;2023-11-19T05:23:39;7.30;99.90
13052;DHT22;6592;47.484;9.726;2023-11-19T05:26:16;7.20;99.90
13052;DHT22;6592;47.484;9.726;2023-11-19T05:28:44;7.20;99.90
13052;DHT22;6592;47.484;9.726;2023-11-19T05:31:13;7.20;99.90
13052;DHT22;6592;47.484;9.726;2023-11-19T05:33:41;7.20;99.90
13052;DHT22;6592;47.484;9.726;2023-11-19T05:36:11;7.20;99.90
13052;DHT22;6592;47.484;9.726;2023-11-19T05:38:40;7.20;99.90
13052;DHT22;6592;47.484;9.726;2023-11-19T05:41:10;7.10;99.90
13052;DHT22;6592;47.484;9.726;2023-11-19T05:43:38;7.10;99.90
13052;DHT22;6592;47.484;9.726;2023-11-19T05:46:08;7.10;99.90
13052;DHT22;6592;47.484;9.726;2023-11-19T05:48:39;7.10;99.90
13052;DHT22;6592;47.484;9.726;2023-11-19T05:51:07;7.20;99.90
13052;DHT22;6592;47.484;9.726;2023-11-19T05:53:36;7.20;99.90
13052;DHT22;6592;47.484;9.726;2023-11-19T05:56:04;7.20;99.90
13052;DHT22;6592;47.484;9.726;2023-11-19T05:58:38;7.20;99.90
13052;DHT22;6592;47.484;9.726;2023-11-19T06:01:07;7.20;99.90
13052;DHT22;6592;47.484;9.726;2023-11-19T06:03:36;7.20;99.90
13052;DHT22;6592;47.484;9.726;2023-11-19T06:06:06;7.30;99.90
13052;DHT22;6592;47.484;9.726;2023-11-19T06:08:34;7.20;99.90
13052;DHT22;6592;47.484;9.726;2023-11-19T06:11:03;7.20;99.90
13052;DHT22;6592;47.484;9.726;2023-11-19T06:13:31;7.10;99.90
13052;DHT22;6592;47.484;9.726;2023-11-19T06:16:01;7.10;99.90
13052;DHT22;6592;47.484;9.726;2023-11-19T06:18:29;7.20;99.90
13052;DHT22;6592;47.484;9.726;2023-11-19T06:20:58;7.10;99.90
13052;DHT22;6592;47.484;9.726;2023-11-19T06:23:27;7.10;99.90
13052;DHT22;6592;47.484;9.726;2023-11-19T06:25:55;7.00;99.90
13052;DHT22;6592;47.484;9.726;2023-11-19T06:28:23;7.10;99.90
13052;DHT22;6592;47.484;9.726;2023-11-19T06:30:51;7.00;99.90
13052;DHT22;6592;47.484;9.726;2023-11-19T06:33:21;7.10;99.90
13052;DHT22;6592;47.484;9.726;2023-11-19T06:35:50;7.10;99.90
13052;DHT22;6592;47.484;9.726;2023-11-19T06:38:19;7.10;99.90
13052;DHT22;6592;47.484;9.726;2023-11-19T06:40:48;7.00;99.90
13052;DHT22;6592;47.484;9.726;2023-11-19T06:43:20;7.00;99.90
13052;DHT22;6592;47.484;9.726;2023-11-19T06:45:49;7.00;99.90
13052;DHT22;6592;47.484;9.726;2023-11-19T06:48:17;7.00;99.90
13052;DHT22;6592;47.484;9.726;2023-11-19T06:50:47;7.00;99.90
13052;DHT22;6592;47.484;9.726;2023-11-19T06:53:15;7.00;99.90
13052;DHT22;6592;47.484;9.726;2023-11-19T06:55:43;7.10;99.90
13052;DHT22;6592;47.484;9.726;2023-11-19T06:58:12;7.10;99.90
13052;DHT22;6592;47.484;9.726;2023-11-19T07:00:40;7.10;99.90
13052;DHT22;6592;47.484;9.726;2023-11-19T07:03:09;7.10;99.90
13052;DHT22;6592;47.484;9.726;2023-11-19T07:05:37;7.10;99.90
13052;DHT22;6592;47.484;9.726;2023-11-19T07:08:07;7.10;99.90
13052;DHT22;6592;47.484;9.726;2023-11-19T07:10:36;7.20;99.90
13052;DHT22;6592;47.484;9.726;2023-11-19T07:13:04;7.20;99.90
13052;DHT22;6592;47.484;9.726;2023-11-19T07:15:33;7.20;99.90
13052;DHT22;6592;47.484;9.726;2023-11-19T07:18:01;7.30;99.90
13052;DHT22;6592;47.484;9.726;2023-11-19T07:20:30;7.40;99.90
13052;DHT22;6592;47.484;9.726;2023-11-19T07:23:00;7.40;99.90
13052;DHT22;6592;47.484;9.726;2023-11-19T07:25:29;7.40;99.90
13052;DHT22;6592;47.484;9.726;2023-11-19T07:27:57;7.40;99.90
13052;DHT22;6592;47.484;9.726;2023-11-19T07:30:26;7.40;99.90
13052;DHT22;6592;47.484;9.726;2023-11-19T07:32:54;7.40;99.90
13052;DHT22;6592;47.484;9.726;2023-11-19T07:35:22;7.40;99.90
13052;DHT22;6592;47.484;9.726;2023-11-19T07:37:51;7.40;99.90
13052;DHT22;6592;47.484;9.726;2023-11-19T07:40:19;7.40;99.90
13052;DHT22;6592;47.484;9.726;2023-11-19T07:42:49;7.50;99.90
13052;DHT22;6592;47.484;9.726;2023-11-19T07:45:17;7.50;99.90
13052;DHT22;6592;47.484;9.726;2023-11-19T07:47:46;7.60;99.90
13052;DHT22;6592;47.484;9.726;2023-11-19T07:50:14;7.70;99.90
13052;DHT22;6592;47.484;9.726;2023-11-19T07:52:44;7.70;99.90
13052;DHT22;6592;47.484;9.726;2023-11-19T07:55:12;7.70;99.90
13052;DHT22;6592;47.484;9.726;2023-11-19T07:57:40;7.70;99.90
13052;DHT22;6592;47.484;9.726;2023-11-19T08:00:11;7.60;99.90
13052;DHT22;6592;47.484;9.726;2023-11-19T08:02:40;7.70;99.90
13052;DHT22;6592;47.484;9.726;2023-11-19T08:05:09;7.70;99.90
13052;DHT22;6592;47.484;9.726;2023-11-19T08:07:37;7.70;99.90
13052;DHT22;6592;47.484;9.726;2023-11-19T08:10:06;7.70;99.90
13052;DHT22;6592;47.484;9.726;2023-11-19T08:12:37;7.80;99.90
13052;DHT22;6592;47.484;9.726;2023-11-19T08:15:06;7.80;99.90
13052;DHT22;6592;47.484;9.726;2023-11-19T08:17:36;7.90;99.90
13052;DHT22;6592;47.484;9.726;2023-11-19T08:20:05;8.00;99.90
13052;DHT22;6592;47.484;9.726;2023-11-19T08:22:38;8.10;99.90
13052;DHT22;6592;47.484;9.726;2023-11-19T08:25:06;8.20;99.90
13052;DHT22;6592;47.484;9.726;2023-11-19T08:27:35;8.20;99.90
13052;DHT22;6592;47.484;9.726;2023-11-19T08:30:04;8.20;99.90
13052;DHT22;6592;47.484;9.726;2023-11-19T08:32:36;8.20;99.90
13052;DHT22;6592;47.484;9.726;2023-11-19T08:35:05;8.10;99.90
13052;DHT22;6592;47.484;9.726;2023-11-19T08:37:34;8.20;99.90
13052;DHT22;6592;47.484;9.726;2023-11-19T08:40:05;8.20;99.90
13052;DHT22;6592;47.484;9.726;2023-11-19T08:42:34;8.20;99.90
13052;DHT22;6592;47.484;9.726;2023-11-19T08:45:04;8.20;99.90
13052;DHT22;6592;47.484;9.726;2023-11-19T08:47:32;8.30;99.90
13052;DHT22;6592;47.484;9.726;2023-11-19T08:50:03;8.30;99.90
13052;DHT22;6592;47.484;9.726;2023-11-19T08:52:32;8.30;99.90
13052;DHT22;6592;47.484;9.726;2023-11-19T08:55:01;8.30;99.90
13052;DHT22;6592;47.484;9.726;2023-11-19T08:57:30;8.40;99.90
13052;DHT22;6592;47.484;9.726;2023-11-19T08:59:58;8.40;99.90
13052;DHT22;6592;47.484;9.726;2023-11-19T09:02:26;8.50;99.90
13052;DHT22;6592;47.484;9.726;2023-11-19T09:04:55;8.50;99.90
13052;DHT22;6592;47.484;9.726;2023-11-19T09:07:25;8.60;99.90
13052;DHT22;6592;47.484;9.726;2023-11-19T09:09:54;8.60;99.90
13052;DHT22;6592;47.484;9.726;2023-11-19T09:12:22;8.60;99.90
13052;DHT22;6592;47.484;9.726;2023-11-19T09:14:51;8.60;99.90
13052;DHT22;6592;47.484;9.726;2023-11-19T09:17:19;8.60;99.90
13052;DHT22;6592;47.484;9.726;2023-11-19T09:19:48;8.70;99.90
13052;DHT22;6592;47.484;9.726;2023-11-19T09:22:16;8.70;99.90
13052;DHT22;6592;47.484;9.726;2023-11-19T09:24:46;8.80;99.90
13052;DHT22;6592;47.484;9.726;2023-11-19T09:27:15;8.90;99.90
13052;DHT22;6592;47.484;9.726;2023-11-19T09:29:43;8.80;99.90
13052;DHT22;6592;47.484;9.726;2023-11-19T09:32:13;8.90;99.90
13052;DHT22;6592;47.484;9.726;2023-11-19T09:34:42;8.90;99.90
13052;DHT22;6592;47.484;9.726;2023-11-19T09:37:10;9.00;99.90
13052;DHT22;6592;47.484;9.726;2023-11-19T09:39:41;9.10;99.90
13052;DHT22;6592;47.484;9.726;2023-11-19T09:42:12;9.20;99.90
13052;DHT22;6592;47.484;9.726;2023-11-19T09:44:42;9.20;99.90
13052;DHT22;6592;47.484;9.726;2023-11-19T09:47:11;9.30;99.90
13052;DHT22;6592;47.484;9.726;2023-11-19T09:49:40;9.30;99.90
13052;DHT22;6592;47.484;9.726;2023-11-19T09:52:09;9.20;99.90
13052;DHT22;6592;47.484;9.726;2023-11-19T09:54:37;9.20;99.90
13052;DHT22;6592;47.484;9.726;2023-11-19T09:57:07;9.30;99.90
13052;DHT22;6592;47.484;9.726;2023-11-19T09:59:39;9.20;99.90
13052;DHT22;6592;47.484;9.726;2023-11-19T10:02:09;9.20;99.90
13052;DHT22;6592;47.484;9.726;2023-11-19T10:04:38;9.20;99.90
13052;DHT22;6592;47.484;9.726;2023-11-19T10:07:08;9.20;99.90
13052;DHT22;6592;47.484;9.726;2023-11-19T10:09:37;9.30;99.90
13052;DHT22;6592;47.484;9.726;2023-11-19T10:12:06;9.50;99.90
13052;DHT22;6592;47.484;9.726;2023-11-19T10:14:35;9.50;99.90
13052;DHT22;6592;47.484;9.726;2023-11-19T10:17:08;9.40;99.90
13052;DHT22;6592;47.484;9.726;2023-11-19T10:19:38;9.50;99.90
13052;DHT22;6592;47.484;9.726;2023-11-19T10:22:08;9.60;99.90
13052;DHT22;6592;47.484;9.726;2023-11-19T10:24:36;9.60;99.90
13052;DHT22;6592;47.484;9.726;2023-11-19T10:27:15;9.70;99.90
13052;DHT22;6592;47.484;9.726;2023-11-19T10:29:45;9.90;99.90
13052;DHT22;6592;47.484;9.726;2023-11-19T10:32:15;9.90;99.90
13052;DHT22;6592;47.484;9.726;2023-11-19T10:35:01;9.90;99.90
13052;DHT22;6592;47.484;9.726;2023-11-19T10:37:33;9.90;99.90
13052;DHT22;6592;47.484;9.726;2023-11-19T10:40:05;9.90;99.90
13052;DHT22;6592;47.484;9.726;2023-11-19T10:42:37;9.90;99.90
13052;DHT22;6592;47.484;9.726;2023-11-19T10:45:21;9.90;99.90
13052;DHT22;6592;47.484;9.726;2023-11-19T10:47:54;10.00;99.90
13052;DHT22;6592;47.484;9.726;2023-11-19T10:50:24;10.00;99.90
13052;DHT22;6592;47.484;9.726;2023-11-19T10:52:55;10.00;99.90
13052;DHT22;6592;47.484;9.726;2023-11-19T10:55:27;10.10;99.90
13052;DHT22;6592;47.484;9.726;2023-11-19T10:57:59;10.10;99.90
13052;DHT22;6592;47.484;9.726;2023-11-19T11:00:29;10.10;99.90
13052;DHT22;6592;47.484;9.726;2023-11-19T11:03:02;10.10;99.90
13052;DHT22;6592;47.484;9.726;2023-11-19T11:05:33;10.10;99.90
13052;DHT22;6592;47.484;9.726;2023-11-19T11:08:03;10.10;99.90
13052;DHT22;6592;47.484;9.726;2023-11-19T11:10:36;10.20;99.90
13052;DHT22;6592;47.484;9.726;2023-11-19T11:13:24;10.10;99.90
13052;DHT22;6592;47.484;9.726;2023-11-19T11:15:56;10.10;99.90
13052;DHT22;6592;47.484;9.726;2023-11-19T11:18:27;10.10;99.90
13052;DHT22;6592;47.484;9.726;2023-11-19T11:21:06;10.10;99.90
13052;DHT22;6592;47.484;9.726;2023-11-19T11:24:10;10.10;99.90
13052;DHT22;6592;47.484;9.726;2023-11-19T11:26:58;10.30;99.90
13052;DHT22;6592;47.484;9.726;2023-11-19T11:29:37;10.40;99.90
13052;DHT22;6592;47.484;9.726;2023-11-19T11:32:15;10.40;99.90
13052;DHT22;6592;47.484;9.726;2023-11-19T11:34:57;10.20;99.90
13052;DHT22;6592;47.484;9.726;2023-11-19T11:37:32;10.30;99.90
13052;DHT22;6592;47.484;9.726;2023-11-19T11:40:02;10.20;99.90
13052;DHT22;6592;47.484;9.726;2023-11-19T11:42:37;10.20;99.90
13052;DHT22;6592;47.484;9.726;2023-11-19T11:45:07;10.20;99.90
13052;DHT22;6592;47.484;9.726;2023-11-19T11:48:08;10.10;99.90
13052;DHT22;6592;47.484;9.726;2023-11-19T11:50:56;10.10;99.90
13052;DHT22;6592;47.484;9.726;2023-11-19T11:53:25;10.10;99.90
13052;DHT22;6592;47.484;9.726;2023-11-19T11:55:55;10.20;99.90
13052;DHT22;6592;47.484;9.726;2023-11-19T11:58:32;10.20;99.90
13052;DHT22;6592;47.484;9.726;2023-11-19T12:01:03;10.10;99.90
13052;DHT22;6592;47.484;9.726;2023-11-19T12:03:33;10.10;99.90
13052;DHT22;6592;47.484;9.726;2023-11-19T12:06:03;10.10;99.90
13052;DHT22;6592;47.484;9.726;2023-11-19T12:08:35;10.20;99.90
13052;DHT22;6592;47.484;9.726;2023-11-19T12:11:19;10.20;99.90
13052;DHT22;6592;47.484;9.726;2023-11-19T12:13:53;10.30;99.90
13052;DHT22;6592;47.484;9.726;2023-11-19T12:16:25;10.20;99.90
13052;DHT22;6592;47.484;9.726;2023-11-19T12:18:56;10.30;99.90
13052;DHT22;6592;47.484;9.726;2023-11-19T12:21:32;10.50;99.90
13052;DHT22;6592;47.484;9.726;2023-11-19T12:24:06;10.60;99.90
13052;DHT22;6592;47.484;9.726;2023-11-19T12:26:37;10.70;99.90
13052;DHT22;6592;47.484;9.726;2023-11-19T12:29:06;10.80;99.90
13052;DHT22;6592;47.484;9.726;2023-11-19T12:31:36;10.80;99.90
13052;DHT22;6592;47.484;9.726;2023-11-19T12:34:11;10.80;99.90
13052;DHT22;6592;47.484;9.726;2023-11-19T12:36:43;10.80;99.90
13052;DHT22;6592;47.484;9.726;2023-11-19T12:39:12;10.90;99.90
13052;DHT22;6592;47.484;9.726;2023-11-19T12:41:51;11.00;99.90
13052;DHT22;6592;47.484;9.726;2023-11-19T12:44:21;10.90;99.90
13052;DHT22;6592;47.484;9.726;2023-11-19T12:47:02;10.90;99.90
13052;DHT22;6592;47.484;9.726;2023-11-19T12:49:31;11.00;99.90
13052;DHT22;6592;47.484;9.726;2023-11-19T12:52:01;11.00;99.90
13052;DHT22;6592;47.484;9.726;2023-11-19T12:54:35;11.00;99.90
13052;DHT22;6592;47.484;9.726;2023-11-19T12:57:04;10.80;99.90
13052;DHT22;6592;47.484;9.726;2023-11-19T12:59:33;10.80;99.90
13052;DHT22;6592;47.484;9.726;2023-11-19T13:02:02;10.80;99.90
13052;DHT22;6592;47.484;9.726;2023-11-19T13:04:33;10.90;99.90
13052;DHT22;6592;47.484;9.726;2023-11-19T13:07:03;10.90;99.90
13052;DHT22;6592;47.484;9.726;2023-11-19T13:09:33;10.90;99.90
13052;DHT22;6592;47.484;9.726;2023-11-19T13:12:12;11.00;99.90
13052;DHT22;6592;47.484;9.726;2023-11-19T13:14:41;11.00;99.90
13052;DHT22;6592;47.484;9.726;2023-11-19T13:17:13;11.00;99.90
13052;DHT22;6592;47.484;9.726;2023-11-19T13:19:42;11.10;99.90
13052;DHT22;6592;47.484;9.726;2023-11-19T13:22:12;11.10;99.90
13052;DHT22;6592;47.484;9.726;2023-11-19T13:24:40;11.10;99.90
13052;DHT22;6592;47.484;9.726;2023-11-19T13:27:09;11.10;99.90
13052;DHT22;6592;47.484;9.726;2023-11-19T13:29:38;11.10;99.90
13052;DHT22;6592;47.484;9.726;2023-11-19T13:32:06;11.10;99.90
13052;DHT22;6592;47.484;9.726;2023-11-19T13:34:35;11.20;99.90
13052;DHT22;6592;47.484;9.726;2023-11-19T13:37:04;11.20;99.90
13052;DHT22;6592;47.484;9.726;2023-11-19T13:39:33;11.30;99.90
13052;DHT22;6592;47.484;9.726;2023-11-19T13:42:02;11.30;99.90
13052;DHT22;6592;47.484;9.726;2023-11-19T13:44:34;11.30;99.90
13052;DHT22;6592;47.484;9.726;2023-11-19T13:47:02;11.40;99.90
13052;DHT22;6592;47.484;9.726;2023-11-19T13:49:31;11.40;99.90
13052;DHT22;6592;47.484;9.726;2023-11-19T13:52:00;11.40;99.90
13052;DHT22;6592;47.484;9.726;2023-11-19T13:54:28;11.40;99.90
13052;DHT22;6592;47.484;9.726;2023-11-19T13:56:59;11.30;99.90
13052;DHT22;6592;47.484;9.726;2023-11-19T13:59:27;11.30;99.90
13052;DHT22;6592;47.484;9.726;2023-11-19T14:01:56;11.40;99.90
13052;DHT22;6592;47.484;9.726;2023-11-19T14:04:24;11.40;99.90
13052;DHT22;6592;47.484;9.726;2023-11-19T14:06:53;11.40;99.90
13052;DHT22;6592;47.484;9.726;2023-11-19T14:09:22;11.40;99.90
13052;DHT22;6592;47.484;9.726;2023-11-19T14:11:50;11.30;99.90
13052;DHT22;6592;47.484;9.726;2023-11-19T14:14:20;11.30;99.90
13052;DHT22;6592;47.484;9.726;2023-11-19T14:16:48;11.30;99.90
13052;DHT22;6592;47.484;9.726;2023-11-19T14:19:17;11.40;99.90
13052;DHT22;6592;47.484;9.726;2023-11-19T14:21:45;11.50;99.90
13052;DHT22;6592;47.484;9.726;2023-11-19T14:24:14;11.50;99.90
13052;DHT22;6592;47.484;9.726;2023-11-19T14:26:45;11.40;99.90
13052;DHT22;6592;47.484;9.726;2023-11-19T14:29:14;11.40;99.90
13052;DHT22;6592;47.484;9.726;2023-11-19T14:31:44;11.40;99.90
13052;DHT22;6592;47.484;9.726;2023-11-19T14:34:12;11.40;99.90
13052;DHT22;6592;47.484;9.726;2023-11-19T14:36:40;11.40;99.90
13052;DHT22;6592;47.484;9.726;2023-11-19T14:39:09;11.40;99.90
13052;DHT22;6592;47.484;9.726;2023-11-19T14:41:37;11.30;99.90
13052;DHT22;6592;47.484;9.726;2023-11-19T14:44:06;11.30;99.90
13052;DHT22;6592;47.484;9.726;2023-11-19T14:46:36;11.20;99.90
13052;DHT22;6592;47.484;9.726;2023-11-19T14:49:05;11.20;99.90
13052;DHT22;6592;47.484;9.726;2023-11-19T14:51:36;11.20;99.90
13052;DHT22;6592;47.484;9.726;2023-11-19T14:54:05;11.20;99.90
13052;DHT22;6592;47.484;9.726;2023-11-19T14:56:34;11.10;99.90
13052;DHT22;6592;47.484;9.726;2023-11-19T14:59:02;11.00;99.90
13052;DHT22;6592;47.484;9.726;2023-11-19T15:01:30;11.00;99.90
13052;DHT22;6592;47.484;9.726;2023-11-19T15:03:59;11.00;99.90
13052;DHT22;6592;47.484;9.726;2023-11-19T15:06:33;11.00;99.90
13052;DHT22;6592;47.484;9.726;2023-11-19T15:09:01;11.00;99.90
13052;DHT22;6592;47.484;9.726;2023-11-19T15:11:30;11.00;99.90
13052;DHT22;6592;47.484;9.726;2023-11-19T15:13:58;11.10;99.90
13052;DHT22;6592;47.484;9.726;2023-11-19T15:16:27;11.00;99.90
13052;DHT22;6592;47.484;9.726;2023-11-19T15:19:00;11.10;99.90
13052;DHT22;6592;47.484;9.726;2023-11-19T15:21:30;11.10;99.90
13052;DHT22;6592;47.484;9.726;2023-11-19T15:24:01;11.10;99.90
13052;DHT22;6592;47.484;9.726;2023-11-19T15:26:34;11.00;99.90
13052;DHT22;6592;47.484;9.726;2023-11-19T15:29:03;11.00;99.90
13052;DHT22;6592;47.484;9.726;2023-11-19T15:31:32;11.00;99.90
13052;DHT22;6592;47.484;9.726;2023-11-19T15:34:00;11.00;99.90
13052;DHT22;6592;47.484;9.726;2023-11-19T15:36:29;11.10;99.90
13052;DHT22;6592;47.484;9.726;2023-11-19T15:39:00;11.00;99.90
13052;DHT22;6592;47.484;9.726;2023-11-19T15:41:29;11.00;99.90
13052;DHT22;6592;47.484;9.726;2023-11-19T15:43:58;10.90;99.90
13052;DHT22;6592;47.484;9.726;2023-11-19T15:46:26;10.70;99.90
13052;DHT22;6592;47.484;9.726;2023-11-19T15:48:55;10.60;99.90
13052;DHT22;6592;47.484;9.726;2023-11-19T15:51:24;10.60;99.90
13052;DHT22;6592;47.484;9.726;2023-11-19T15:53:53;10.60;99.90
13052;DHT22;6592;47.484;9.726;2023-11-19T15:56:22;10.50;99.90
13052;DHT22;6592;47.484;9.726;2023-11-19T15:58:51;10.40;99.90
13052;DHT22;6592;47.484;9.726;2023-11-19T16:01:19;10.40;99.90
13052;DHT22;6592;47.484;9.726;2023-11-19T16:03:47;10.30;99.90
13052;DHT22;6592;47.484;9.726;2023-11-19T16:06:19;10.20;99.90
13052;DHT22;6592;47.484;9.726;2023-11-19T16:08:47;10.10;99.90
13052;DHT22;6592;47.484;9.726;2023-11-19T16:11:17;10.10;99.90
13052;DHT22;6592;47.484;9.726;2023-11-19T16:13:46;10.00;99.90
13052;DHT22;6592;47.484;9.726;2023-11-19T16:16:15;9.90;99.90